KLCI/LCI METAR and TAF weather

Enter ICAO airport designator
Station Type Date Time Source
KLCI METAR 2021/09/23 23:56 UTC NOAA

KLCI 232356Z AUTO 11008KT 090V160 10SM BKN070 21/19 A3010 RMK AO2 SLP194 T02110194 10250 20211 53015


Station Type Date Time Source
KLCI Decoded METAR 2021/09/23 23:56 UTC NOAA

Laconia, Laconia Municipal Airport, NH, United States (KLCI) 43-34N 071-25W
Sep 23, 2021 - 07:56 PM EDT / 2021.09.23 2356 UTC
Wind: from the ESE (110 degrees) at 9 MPH (8 KT) (direction variable):0
Visibility: 10 mile(s):0
Sky conditions: mostly cloudy
Temperature: 70.0 F (21.1 C)
Dew Point: 66.9 F (19.4 C)
Relative Humidity: 90%
Pressure (altimeter): 30.1 in. Hg (1019 hPa)
Pressure tendency: 0.04 inches (1.5 hPa) higher than three hours ago
ob: KLCI 232356Z AUTO 11008KT 090V160 10SM BKN070 21/19 A3010 RMK AO2 SLP194 T02110194 10250 20211 53015
cycle: 0

Station Type Date Time Source
KLCI TAF UTC NOAA

Error!

Example: see airport list